48.5°F
Current conditions from King Hill
Updated every 5 minutes
 
  Wednesday August 20, 2014

Station Historical Data
 
Daily Summary for August 20, 2014 Units:  English    Metric   Both
« Previous Day
Next Day »
Daily Weekly Monthly Yearly Custom
  Current: High: Low: Average:
Temperature: 48.5 °F 52.3 °F 48.5 °F 50.5 °F
Dew Point: 48.0 °F 51.5 °F 48.0 °F 49.9 °F
Humidity: 98% 98% 97% 98%
Wind Speed: 0.0mph 0.0mph 0.0mph 0mph
Wind Gust: 0.0mph 0.0mph - -
WindCalm - - North
Pressure: 29.90 in 29.90 in 29.88 in -
Precipitation: 0.00 in      
Historical Graphs
 
 
Tabular Data for August 20, 2014
Time Temperature Dew Point Pressure Wind Wind Speed Wind Gust Humidity Daily Rainfall
00:04 52.3 °F 51.5 °F 29.90 in Calm     97% 0.00 in
00:09 52.2 °F 51.4 °F 29.90 in Calm     97% 0.00 in
00:14 52.1 °F 51.3 °F 29.90 in Calm     97% 0.00 in
00:19 52.0 °F 51.2 °F 29.90 in Calm     97% 0.00 in
00:24 52.0 °F 51.2 °F 29.90 in Calm     97% 0.00 in
00:29 52.0 °F 51.2 °F 29.89 in Calm     97% 0.00 in
00:34 52.0 °F 51.2 °F 29.90 in Calm     97% 0.00 in
00:39 51.9 °F 51.1 °F 29.90 in Calm     97% 0.00 in
00:44 51.8 °F 51.0 °F 29.90 in Calm     97% 0.00 in
00:49 51.8 °F 51.0 °F 29.89 in Calm     97% 0.00 in
00:54 51.8 °F 51.0 °F 29.89 in Calm     97% 0.00 in
00:59 51.7 °F 50.9 °F 29.90 in Calm     97% 0.00 in
01:04 51.5 °F 50.7 °F 29.89 in Calm     97% 0.00 in
01:09 51.4 °F 50.6 °F 29.89 in Calm     97% 0.00 in
01:14 51.3 °F 50.5 °F 29.90 in Calm     97% 0.00 in
01:19 51.2 °F 50.4 °F 29.89 in Calm     97% 0.00 in
01:24 51.0 °F 50.2 °F 29.89 in Calm     97% 0.00 in
01:29 50.9 °F 50.1 °F 29.89 in Calm     97% 0.00 in
01:34 50.9 °F 50.1 °F 29.89 in Calm     97% 0.00 in
01:39 51.0 °F 50.5 °F 29.89 in Calm     98% 0.00 in
01:44 50.9 °F 50.1 °F 29.89 in Calm     97% 0.00 in
01:49 50.7 °F 49.9 °F 29.90 in Calm     97% 0.00 in
01:54 50.5 °F 49.7 °F 29.89 in Calm     97% 0.00 in
01:59 50.4 °F 49.6 °F 29.89 in Calm     97% 0.00 in
02:04 50.5 °F 50.0 °F 29.88 in Calm     98% 0.00 in
02:09 50.6 °F 50.1 °F 29.89 in Calm     98% 0.00 in
02:14 50.6 °F 50.1 °F 29.89 in Calm     98% 0.00 in
02:19 50.6 °F 50.1 °F 29.90 in Calm     98% 0.00 in
02:24 50.6 °F 50.1 °F 29.90 in Calm     98% 0.00 in
02:29 50.4 °F 49.9 °F 29.89 in Calm     98% 0.00 in
02:34 50.1 °F 49.3 °F 29.90 in Calm     97% 0.00 in
02:39 50.0 °F 49.5 °F 29.89 in Calm     98% 0.00 in
02:44 49.9 °F 49.4 °F 29.89 in Calm     98% 0.00 in
02:49 50.0 °F 49.5 °F 29.90 in Calm     98% 0.00 in
02:54 50.0 °F 49.5 °F 29.89 in Calm     98% 0.00 in
02:59 50.1 °F 49.6 °F 29.89 in Calm     98% 0.00 in
03:04 50.2 °F 49.7 °F 29.89 in Calm     98% 0.00 in
03:09 50.2 °F 49.7 °F 29.89 in Calm     98% 0.00 in
03:14 50.1 °F 49.6 °F 29.89 in Calm     98% 0.00 in
03:19 50.0 °F 49.5 °F 29.89 in Calm     98% 0.00 in
03:24 50.0 °F 49.5 °F 29.90 in Calm     98% 0.00 in
03:29 49.8 °F 49.3 °F 29.89 in Calm     98% 0.00 in
03:34 49.8 °F 49.3 °F 29.89 in Calm     98% 0.00 in
03:39 49.7 °F 49.2 °F 29.89 in Calm     98% 0.00 in
03:44 49.7 °F 49.2 °F 29.89 in Calm     98% 0.00 in
03:49 49.7 °F 49.2 °F 29.89 in Calm     98% 0.00 in
03:54 49.6 °F 49.1 °F 29.89 in Calm     98% 0.00 in
03:59 49.5 °F 49.0 °F 29.89 in Calm     98% 0.00 in
04:04 49.4 °F 48.9 °F 29.89 in Calm     98% 0.00 in
04:09 49.3 °F 48.8 °F 29.89 in Calm     98% 0.00 in
04:14 49.2 °F 48.7 °F 29.89 in Calm     98% 0.00 in
04:19 49.0 °F 48.5 °F 29.89 in Calm     98% 0.00 in
04:24 48.9 °F 48.4 °F 29.88 in Calm     98% 0.00 in
04:29 48.9 °F 48.4 °F 29.89 in Calm     98% 0.00 in
04:34 48.7 °F 48.2 °F 29.89 in Calm     98% 0.00 in
04:39 48.6 °F 48.1 °F 29.90 in Calm     98% 0.00 in
04:44 48.5 °F 48.0 °F 29.90 in Calm     98% 0.00 in
Westford Weather
Compliments of Weather Underground

 
 
Current Radar Loop:

Copyright © WestfordWeather.net 2007-2014. All rights reserved.